地図

経路データ

SID SEASON NUMBER BASIN SUBBASIN NAME ISO_TIME NATURE LAT LON WMO_WIND WMO_PRES WMO_AGENCY TRACK_TYPE DIST2LAND LANDFALL IFLAG USA_AGENCY USA_ATCF_ID USA_LAT USA_LON USA_RECORD USA_STATUS USA_WIND USA_PRES USA_SSHS USA_R34_NE USA_R34_SE USA_R34_SW USA_R34_NW USA_R50_NE USA_R50_SE USA_R50_SW USA_R50_NW USA_R64_NE USA_R64_SE USA_R64_SW USA_R64_NW USA_POCI USA_ROCI USA_RMW USA_EYE TOKYO_LAT TOKYO_LON TOKYO_GRADE TOKYO_WIND TOKYO_PRES TOKYO_R50_DIR TOKYO_R50_LONG TOKYO_R50_SHORT TOKYO_R30_DIR TOKYO_R30_LONG TOKYO_R30_SHORT TOKYO_LAND CMA_LAT CMA_LON CMA_CAT CMA_WIND CMA_PRES HKO_LAT HKO_LON HKO_CAT HKO_WIND HKO_PRES NEWDELHI_LAT NEWDELHI_LON NEWDELHI_GRADE NEWDELHI_WIND NEWDELHI_PRES NEWDELHI_CI NEWDELHI_DP NEWDELHI_POCI REUNION_LAT REUNION_LON REUNION_TYPE REUNION_WIND REUNION_PRES REUNION_TNUM REUNION_CI REUNION_RMW REUNION_R34_NE REUNION_R34_SE REUNION_R34_SW REUNION_R34_NW REUNION_R50_NE REUNION_R50_SE REUNION_R50_SW REUNION_R50_NW REUNION_R64_NE REUNION_R64_SE REUNION_R64_SW REUNION_R64_NW BOM_LAT BOM_LON BOM_TYPE BOM_WIND BOM_PRES BOM_TNUM BOM_CI BOM_RMW BOM_R34_NE BOM_R34_SE BOM_R34_SW BOM_R34_NW BOM_R50_NE BOM_R50_SE BOM_R50_SW BOM_R50_NW BOM_R64_NE BOM_R64_SE BOM_R64_SW BOM_R64_NW BOM_ROCI BOM_POCI BOM_EYE BOM_POS_METHOD BOM_PRES_METHOD NADI_LAT NADI_LON NADI_CAT NADI_WIND NADI_PRES WELLINGTON_LAT WELLINGTON_LON WELLINGTON_WIND WELLINGTON_PRES DS824_LAT DS824_LON DS824_STAGE DS824_WIND DS824_PRES TD9636_LAT TD9636_LON TD9636_STAGE TD9636_WIND TD9636_PRES TD9635_LAT TD9635_LON TD9635_WIND TD9635_PRES TD9635_ROCI NEUMANN_LAT NEUMANN_LON NEUMANN_CLASS NEUMANN_WIND NEUMANN_PRES MLC_LAT MLC_LON MLC_CLASS MLC_WIND MLC_PRES USA_GUST BOM_GUST BOM_GUST_PER REUNION_GUST REUNION_GUST_PER USA_SEAHGT USA_SEARAD_NE USA_SEARAD_SE USA_SEARAD_SW USA_SEARAD_NW STORM_SPEED STORM_DIR
1931245N22118 1931 34 WP MM NOT_NAMED 1931-09-01 22:00:00 NR 21.8000 118.000 main 197 174 __________O___ -1 21.8000 118.000 7 8 269
1931245N22118 1931 34 WP MM NOT_NAMED 1931-09-02 00:00:00 NR 21.7953 117.723 main 174 147 __________P___ -1 21.7953 117.723 7 8 269
1931245N22118 1931 34 WP MM NOT_NAMED 1931-09-02 03:00:00 NR 21.7896 117.310 main 147 129 __________P___ -1 21.7896 117.310 7 8 269
1931245N22118 1931 34 WP MM NOT_NAMED 1931-09-02 06:00:00 NR 21.7885 116.909 main 129 119 __________P___ -1 21.7885 116.909 7 7 270
1931245N22118 1931 34 WP MM NOT_NAMED 1931-09-02 09:00:00 NR 21.7953 116.524 main 119 115 __________P___ -1 21.7953 116.524 7 7 271
1931245N22118 1931 34 WP MM NOT_NAMED 1931-09-02 10:00:00 NR 21.8000 116.400 main 115 108 __________O___ -1 21.8000 116.400 3 7 273
1931245N22118 1931 34 WP MM NOT_NAMED 1931-09-02 12:00:00 NR 21.8137 116.160 main 108 100 __________P___ -1 21.8137 116.160 3 7 275
1931245N22118 1931 34 WP MM NOT_NAMED 1931-09-02 15:00:00 NR 21.8469 115.814 main 100 89 __________P___ -1 21.8469 115.814 3 6 278
1931245N22118 1931 34 WP MM NOT_NAMED 1931-09-02 18:00:00 NR 21.8982 115.471 main 89 59 __________P___ -1 21.8982 115.471 3 7 281
1931245N22118 1931 34 WP MM NOT_NAMED 1931-09-02 21:00:00 NR 21.9706 115.121 main 59 56 __________P___ -1 21.9706 115.121 3 7 283
1931245N22118 1931 34 WP MM NOT_NAMED 1931-09-02 22:00:00 NR 22.0000 115.000 main 56 45 __________O___ -1 22.0000 115.000 4 8 283
1931245N22118 1931 34 WP MM NOT_NAMED 1931-09-03 00:00:00 NR 22.0586 114.724 main 45 11 __________P___ -1 22.0586 114.724 4 8 284
1931245N22118 1931 34 WP MM NOT_NAMED 1931-09-03 03:00:00 NR 22.1651 114.297 main 11 11 __________P___ -1 22.1651 114.297 4 8 287
1931245N22118 1931 34 WP MM NOT_NAMED 1931-09-03 06:00:00 NR 22.2938 113.881 main 11 0 __________P___ -1 22.2938 113.881 4 8 291
1931245N22118 1931 34 WP MM NOT_NAMED 1931-09-03 09:00:00 NR 22.4447 113.509 main 0 0 __________P___ -1 22.4447 113.509 4 7 295
1931245N22118 1931 34 WP MM NOT_NAMED 1931-09-03 10:00:00 NR 22.5000 113.400 main 0 0 __________O___ -1 22.5000 113.400 7 7 302
1931245N22118 1931 34 WP MM NOT_NAMED 1931-09-03 12:00:00 NR 22.6178 113.209 main 0 0 __________P___ -1 22.6178 113.209 7 6 309
1931245N22118 1931 34 WP MM NOT_NAMED 1931-09-03 15:00:00 NR 22.8098 112.979 main 0 0 __________P___ -1 22.8098 112.979 7 5 316
1931245N22118 1931 34 WP MM NOT_NAMED 1931-09-03 18:00:00 NR 23.0152 112.800 main 0 0 __________P___ -1 23.0152 112.800 7 5 324
1931245N22118 1931 34 WP MM NOT_NAMED 1931-09-03 21:00:00 NR 23.2283 112.648 main 0 0 __________P___ -1 23.2283 112.648 7 5 327
1931245N22118 1931 34 WP MM NOT_NAMED 1931-09-03 22:00:00 NR 23.3000 112.600 main 0 __________O___ -1 23.3000 112.600 7 5 335

デジタル台風データ・検索

IBTrACS Databaseについて

本データベースは、米国NOAAが公開する1842年以降の世界の熱帯低気圧のベストトラックデータアーカイブInternational Best Track Archive for Climate Stewardship (IBTrACS)を、ウェブで閲覧しやすい形式に変換したものです。

最終更新日:2021-12-03